Kezdőlap
METAR-TAF:

METAR-TAF

Repülőterek :

Brenner Field

Falls City, Nebraska, Amerikai Egyesült Államok

földrajzi szélesség: 40-04-44N, földrajzi hosszúság: 095-35-31W, magasság: 300 m

Jelenlegi meteorológiai megfigyelések

A jelentés 56 perccel ezelõtt készült, 14:53 UTC
Észak-északnyugati szél 14 kt széllökések: 24 kt
Hőmérséklet 12°C
Páratartalom 50%
Légköri nyomás 1025 hPa
Látótávolság: 16.1 km
Derült ég

METAR: KFNB 011453Z AUTO 33014G24KT 10SM CLR 12/02 A3028 RMK AO2 PK WND 32026/1431 SLP253 T01220017 51022

Idő: 10:49 (15:49 UTC)


TAF: hiányzik

Meteorológiai megfigyelések és előrejelzések több, mint 4000 repülőtéren (METAR és TAF jelentéseket).

A térképen piros és sárga pontok jelzik az elérhető meteorológiai állomásokat.

Mozgassa az egeret a pont fölött, hogy megjelenjen az állomás neve.

Azután kattintson az időjárási megfigyelések és előrejelzések megtekintéséhez.

A térkép megváltoztatása: kattintson a fekete keresztel jelölt zöld gombra ráközelítéshez, a vonallal jelölt zöld gombra távolításhoz, vagy a zöld nyilakra a szomszédos térképek eléréséhez.


METAR-TAF: